sensor_id;sensor_type;location;lat;lon;timestamp;P1;durP1;ratioP1;P2;durP2;ratioP2
15889;SDS011;8043;49.388;12.128;2022-08-21T00:00:44;11.50;;;6.07;;
15889;SDS011;8043;49.388;12.128;2022-08-21T00:05:48;13.23;;;6.03;;
15889;SDS011;8043;49.388;12.128;2022-08-21T00:10:50;9.27;;;4.80;;
15889;SDS011;8043;49.388;12.128;2022-08-21T00:15:52;8.93;;;5.03;;
15889;SDS011;8043;49.388;12.128;2022-08-21T00:20:55;11.50;;;5.10;;
15889;SDS011;8043;49.388;12.128;2022-08-21T00:26:00;8.03;;;5.07;;
15889;SDS011;8043;49.388;12.128;2022-08-21T00:31:02;8.93;;;4.83;;
15889;SDS011;8043;49.388;12.128;2022-08-21T00:36:06;11.30;;;5.67;;
15889;SDS011;8043;49.388;12.128;2022-08-21T00:41:09;10.57;;;5.40;;
15889;SDS011;8043;49.388;12.128;2022-08-21T00:46:12;12.17;;;5.83;;
15889;SDS011;8043;49.388;12.128;2022-08-21T00:51:20;16.50;;;6.40;;
15889;SDS011;8043;49.388;12.128;2022-08-21T00:56:23;10.70;;;5.30;;
15889;SDS011;8043;49.388;12.128;2022-08-21T01:01:26;11.50;;;6.17;;
15889;SDS011;8043;49.388;12.128;2022-08-21T01:06:28;13.87;;;5.90;;
15889;SDS011;8043;49.388;12.128;2022-08-21T01:11:31;13.67;;;7.07;;
15889;SDS011;8043;49.388;12.128;2022-08-21T01:16:33;17.87;;;7.23;;
15889;SDS011;8043;49.388;12.128;2022-08-21T01:21:35;16.63;;;6.87;;
15889;SDS011;8043;49.388;12.128;2022-08-21T01:26:41;15.27;;;6.33;;
15889;SDS011;8043;49.388;12.128;2022-08-21T01:31:44;16.17;;;7.23;;
15889;SDS011;8043;49.388;12.128;2022-08-21T01:36:47;15.37;;;7.07;;
15889;SDS011;8043;49.388;12.128;2022-08-21T01:41:49;14.10;;;6.20;;
15889;SDS011;8043;49.388;12.128;2022-08-21T01:46:52;13.30;;;6.40;;
15889;SDS011;8043;49.388;12.128;2022-08-21T01:51:55;17.77;;;7.03;;
15889;SDS011;8043;49.388;12.128;2022-08-21T01:56:58;20.53;;;7.30;;
15889;SDS011;8043;49.388;12.128;2022-08-21T02:02:02;13.37;;;6.77;;
15889;SDS011;8043;49.388;12.128;2022-08-21T02:07:04;20.10;;;7.93;;
15889;SDS011;8043;49.388;12.128;2022-08-21T02:12:07;18.90;;;7.10;;
15889;SDS011;8043;49.388;12.128;2022-08-21T02:17:10;14.23;;;7.23;;
15889;SDS011;8043;49.388;12.128;2022-08-21T02:22:12;14.17;;;8.00;;
15889;SDS011;8043;49.388;12.128;2022-08-21T02:27:14;16.97;;;7.37;;
15889;SDS011;8043;49.388;12.128;2022-08-21T02:32:16;12.63;;;6.17;;
15889;SDS011;8043;49.388;12.128;2022-08-21T02:37:18;15.47;;;7.47;;
15889;SDS011;8043;49.388;12.128;2022-08-21T02:42:21;15.20;;;6.97;;
15889;SDS011;8043;49.388;12.128;2022-08-21T02:47:23;13.37;;;6.53;;
15889;SDS011;8043;49.388;12.128;2022-08-21T02:52:25;16.73;;;6.40;;
15889;SDS011;8043;49.388;12.128;2022-08-21T02:57:28;14.73;;;6.53;;
15889;SDS011;8043;49.388;12.128;2022-08-21T03:02:31;13.03;;;5.40;;
15889;SDS011;8043;49.388;12.128;2022-08-21T03:07:35;8.50;;;4.50;;
15889;SDS011;8043;49.388;12.128;2022-08-21T03:12:39;8.13;;;4.77;;
15889;SDS011;8043;49.388;12.128;2022-08-21T03:17:42;11.13;;;4.37;;
15889;SDS011;8043;49.388;12.128;2022-08-21T03:22:45;9.23;;;4.83;;
15889;SDS011;8043;49.388;12.128;2022-08-21T03:27:48;8.83;;;4.30;;
15889;SDS011;8043;49.388;12.128;2022-08-21T03:32:50;11.27;;;5.20;;
15889;SDS011;8043;49.388;12.128;2022-08-21T03:37:53;10.43;;;5.27;;
15889;SDS011;8043;49.388;12.128;2022-08-21T03:42:56;11.13;;;4.63;;
15889;SDS011;8043;49.388;12.128;2022-08-21T03:48:01;11.53;;;5.00;;
15889;SDS011;8043;49.388;12.128;2022-08-21T03:53:03;11.47;;;5.73;;
15889;SDS011;8043;49.388;12.128;2022-08-21T03:58:06;12.70;;;5.83;;
15889;SDS011;8043;49.388;12.128;2022-08-21T04:03:09;12.40;;;5.73;;
15889;SDS011;8043;49.388;12.128;2022-08-21T04:08:12;10.63;;;4.70;;
15889;SDS011;8043;49.388;12.128;2022-08-21T04:13:15;10.67;;;5.27;;
15889;SDS011;8043;49.388;12.128;2022-08-21T04:18:17;11.77;;;5.30;;
15889;SDS011;8043;49.388;12.128;2022-08-21T04:23:20;11.70;;;4.93;;
15889;SDS011;8043;49.388;12.128;2022-08-21T04:28:23;11.07;;;5.87;;
15889;SDS011;8043;49.388;12.128;2022-08-21T04:33:27;10.83;;;4.73;;
15889;SDS011;8043;49.388;12.128;2022-08-21T04:38:30;10.73;;;5.53;;
15889;SDS011;8043;49.388;12.128;2022-08-21T04:43:32;10.57;;;4.93;;
15889;SDS011;8043;49.388;12.128;2022-08-21T04:48:35;11.00;;;5.50;;
15889;SDS011;8043;49.388;12.128;2022-08-21T04:53:45;10.43;;;5.13;;
15889;SDS011;8043;49.388;12.128;2022-08-21T04:58:52;17.43;;;5.87;;
15889;SDS011;8043;49.388;12.128;2022-08-21T05:03:58;12.53;;;5.73;;
15889;SDS011;8043;49.388;12.128;2022-08-21T05:09:01;12.23;;;5.67;;
15889;SDS011;8043;49.388;12.128;2022-08-21T05:14:04;13.10;;;6.20;;
15889;SDS011;8043;49.388;12.128;2022-08-21T05:19:06;14.00;;;5.90;;
15889;SDS011;8043;49.388;12.128;2022-08-21T05:24:09;14.07;;;6.03;;
15889;SDS011;8043;49.388;12.128;2022-08-21T05:29:12;13.53;;;5.87;;
15889;SDS011;8043;49.388;12.128;2022-08-21T05:34:18;18.27;;;6.60;;
15889;SDS011;8043;49.388;12.128;2022-08-21T05:39:22;17.90;;;7.93;;
15889;SDS011;8043;49.388;12.128;2022-08-21T05:44:25;17.67;;;7.27;;
15889;SDS011;8043;49.388;12.128;2022-08-21T05:49:28;17.97;;;7.63;;
15889;SDS011;8043;49.388;12.128;2022-08-21T05:54:30;14.33;;;6.60;;
15889;SDS011;8043;49.388;12.128;2022-08-21T05:59:33;14.23;;;6.07;;
15889;SDS011;8043;49.388;12.128;2022-08-21T06:04:36;18.40;;;7.53;;
15889;SDS011;8043;49.388;12.128;2022-08-21T06:09:41;14.90;;;6.43;;
15889;SDS011;8043;49.388;12.128;2022-08-21T06:14:44;17.93;;;7.53;;
15889;SDS011;8043;49.388;12.128;2022-08-21T06:19:50;14.10;;;7.20;;
15889;SDS011;8043;49.388;12.128;2022-08-21T06:24:53;15.50;;;6.60;;
15889;SDS011;8043;49.388;12.128;2022-08-21T06:29:55;12.40;;;6.27;;
15889;SDS011;8043;49.388;12.128;2022-08-21T06:34:58;12.87;;;6.97;;
15889;SDS011;8043;49.388;12.128;2022-08-21T06:40:00;14.60;;;7.00;;
15889;SDS011;8043;49.388;12.128;2022-08-21T06:45:05;17.60;;;7.80;;
15889;SDS011;8043;49.388;12.128;2022-08-21T06:50:08;12.87;;;6.30;;
15889;SDS011;8043;49.388;12.128;2022-08-21T06:55:10;16.23;;;7.00;;
15889;SDS011;8043;49.388;12.128;2022-08-21T07:00:12;17.27;;;7.37;;
15889;SDS011;8043;49.388;12.128;2022-08-21T07:05:15;19.67;;;8.67;;
15889;SDS011;8043;49.388;12.128;2022-08-21T07:10:17;21.03;;;9.40;;
15889;SDS011;8043;49.388;12.128;2022-08-21T07:15:20;18.67;;;8.50;;
15889;SDS011;8043;49.388;12.128;2022-08-21T07:20:22;18.83;;;8.43;;
15889;SDS011;8043;49.388;12.128;2022-08-21T07:25:24;21.73;;;8.93;;
15889;SDS011;8043;49.388;12.128;2022-08-21T07:30:28;17.40;;;8.43;;
15889;SDS011;8043;49.388;12.128;2022-08-21T07:35:31;19.60;;;8.50;;
15889;SDS011;8043;49.388;12.128;2022-08-21T07:40:33;20.50;;;8.97;;
15889;SDS011;8043;49.388;12.128;2022-08-21T07:45:36;24.67;;;10.30;;
15889;SDS011;8043;49.388;12.128;2022-08-21T07:50:39;24.77;;;9.63;;
15889;SDS011;8043;49.388;12.128;2022-08-21T07:55:42;23.73;;;10.17;;
15889;SDS011;8043;49.388;12.128;2022-08-21T08:00:45;25.13;;;10.10;;
15889;SDS011;8043;49.388;12.128;2022-08-21T08:05:48;25.17;;;11.70;;
15889;SDS011;8043;49.388;12.128;2022-08-21T08:10:53;26.23;;;10.57;;
15889;SDS011;8043;49.388;12.128;2022-08-21T08:15:58;29.43;;;11.87;;
15889;SDS011;8043;49.388;12.128;2022-08-21T08:21:01;32.13;;;12.73;;
15889;SDS011;8043;49.388;12.128;2022-08-21T08:26:04;29.63;;;13.17;;
15889;SDS011;8043;49.388;12.128;2022-08-21T08:31:06;29.13;;;13.43;;
15889;SDS011;8043;49.388;12.128;2022-08-21T08:36:12;31.60;;;14.17;;
15889;SDS011;8043;49.388;12.128;2022-08-21T08:41:17;36.70;;;14.93;;
15889;SDS011;8043;49.388;12.128;2022-08-21T08:46:29;33.03;;;13.97;;
15889;SDS011;8043;49.388;12.128;2022-08-21T08:51:46;31.07;;;14.13;;
15889;SDS011;8043;49.388;12.128;2022-08-21T08:56:49;28.50;;;13.80;;
15889;SDS011;8043;49.388;12.128;2022-08-21T09:01:53;31.80;;;15.50;;
15889;SDS011;8043;49.388;12.128;2022-08-21T09:07:01;28.97;;;13.97;;
15889;SDS011;8043;49.388;12.128;2022-08-21T09:12:24;27.67;;;14.23;;
15889;SDS011;8043;49.388;12.128;2022-08-21T09:17:55;28.50;;;13.77;;
15889;SDS011;8043;49.388;12.128;2022-08-21T09:28:11;29.57;;;15.10;;
15889;SDS011;8043;49.388;12.128;2022-08-21T09:33:15;30.57;;;14.80;;
15889;SDS011;8043;49.388;12.128;2022-08-21T09:43:35;22.50;;;12.70;;
15889;SDS011;8043;49.388;12.128;2022-08-21T09:48:43;29.83;;;13.83;;
15889;SDS011;8043;49.388;12.128;2022-08-21T09:53:45;31.17;;;16.13;;
15889;SDS011;8043;49.388;12.128;2022-08-21T09:58:50;34.47;;;16.27;;
15889;SDS011;8043;49.388;12.128;2022-08-21T10:04:08;30.60;;;16.33;;
15889;SDS011;8043;49.388;12.128;2022-08-21T10:09:13;29.37;;;15.00;;
15889;SDS011;8043;49.388;12.128;2022-08-21T10:14:36;32.07;;;15.63;;
15889;SDS011;8043;49.388;12.128;2022-08-21T10:24:57;28.43;;;14.40;;
15889;SDS011;8043;49.388;12.128;2022-08-21T10:30:14;23.97;;;13.60;;
15889;SDS011;8043;49.388;12.128;2022-08-21T10:40:54;23.10;;;12.57;;
15889;SDS011;8043;49.388;12.128;2022-08-21T10:46:14;24.83;;;12.70;;
15889;SDS011;8043;49.388;12.128;2022-08-21T10:51:37;21.23;;;11.00;;
15889;SDS011;8043;49.388;12.128;2022-08-21T10:56:46;18.40;;;10.47;;
15889;SDS011;8043;49.388;12.128;2022-08-21T11:07:08;12.37;;;7.27;;
15889;SDS011;8043;49.388;12.128;2022-08-21T11:12:10;14.80;;;8.30;;
15889;SDS011;8043;49.388;12.128;2022-08-21T11:17:31;14.67;;;8.23;;
15889;SDS011;8043;49.388;12.128;2022-08-21T11:22:46;14.57;;;7.93;;
15889;SDS011;8043;49.388;12.128;2022-08-21T11:43:25;12.10;;;7.03;;
15889;SDS011;8043;49.388;12.128;2022-08-21T11:54:16;14.07;;;7.10;;
15889;SDS011;8043;49.388;12.128;2022-08-21T11:59:25;10.83;;;6.20;;
15889;SDS011;8043;49.388;12.128;2022-08-21T12:04:48;12.27;;;6.80;;
15889;SDS011;8043;49.388;12.128;2022-08-21T12:09:53;10.33;;;6.10;;
15889;SDS011;8043;49.388;12.128;2022-08-21T12:20:33;9.20;;;5.73;;
15889;SDS011;8043;49.388;12.128;2022-08-21T12:25:37;9.35;;;6.10;;
15889;SDS011;8043;49.388;12.128;2022-08-21T12:30:42;9.83;;;5.10;;
15889;SDS011;8043;49.388;12.128;2022-08-21T12:35:46;8.08;;;5.03;;
15889;SDS011;8043;49.388;12.128;2022-08-21T12:45:59;8.97;;;5.63;;
15889;SDS011;8043;49.388;12.128;2022-08-21T12:51:13;7.50;;;4.93;;
15889;SDS011;8043;49.388;12.128;2022-08-21T12:56:23;6.45;;;3.90;;
15889;SDS011;8043;49.388;12.128;2022-08-21T13:01:23;6.47;;;4.15;;
15889;SDS011;8043;49.388;12.128;2022-08-21T13:06:31;5.67;;;3.20;;
15889;SDS011;8043;49.388;12.128;2022-08-21T13:11:35;6.60;;;3.87;;
15889;SDS011;8043;49.388;12.128;2022-08-21T13:16:38;5.83;;;3.50;;
15889;SDS011;8043;49.388;12.128;2022-08-21T13:21:41;8.45;;;3.98;;
15889;SDS011;8043;49.388;12.128;2022-08-21T13:26:45;5.75;;;3.67;;
15889;SDS011;8043;49.388;12.128;2022-08-21T13:31:51;6.37;;;3.80;;
15889;SDS011;8043;49.388;12.128;2022-08-21T13:36:56;5.70;;;3.58;;
15889;SDS011;8043;49.388;12.128;2022-08-21T13:42:01;5.22;;;3.33;;
15889;SDS011;8043;49.388;12.128;2022-08-21T13:47:05;5.72;;;3.58;;
15889;SDS011;8043;49.388;12.128;2022-08-21T13:52:15;4.95;;;3.17;;
15889;SDS011;8043;49.388;12.128;2022-08-21T13:57:26;5.75;;;3.35;;
15889;SDS011;8043;49.388;12.128;2022-08-21T14:02:37;4.17;;;2.33;;
15889;SDS011;8043;49.388;12.128;2022-08-21T14:07:39;4.70;;;2.92;;
15889;SDS011;8043;49.388;12.128;2022-08-21T14:13:05;4.28;;;2.70;;
15889;SDS011;8043;49.388;12.128;2022-08-21T14:17:53;4.53;;;2.87;;
15889;SDS011;8043;49.388;12.128;2022-08-21T14:22:56;4.33;;;2.67;;
15889;SDS011;8043;49.388;12.128;2022-08-21T14:28:15;3.52;;;2.42;;
15889;SDS011;8043;49.388;12.128;2022-08-21T14:33:17;3.45;;;2.52;;
15889;SDS011;8043;49.388;12.128;2022-08-21T14:38:20;4.62;;;3.55;;
15889;SDS011;8043;49.388;12.128;2022-08-21T14:43:23;3.58;;;2.60;;
15889;SDS011;8043;49.388;12.128;2022-08-21T14:48:28;4.70;;;2.72;;
15889;SDS011;8043;49.388;12.128;2022-08-21T14:53:30;4.05;;;2.50;;
15889;SDS011;8043;49.388;12.128;2022-08-21T14:58:33;4.17;;;2.45;;
15889;SDS011;8043;49.388;12.128;2022-08-21T15:03:38;6.10;;;2.87;;
15889;SDS011;8043;49.388;12.128;2022-08-21T15:08:41;3.20;;;2.25;;
15889;SDS011;8043;49.388;12.128;2022-08-21T15:13:43;4.20;;;2.50;;
15889;SDS011;8043;49.388;12.128;2022-08-21T15:18:46;2.72;;;2.40;;
15889;SDS011;8043;49.388;12.128;2022-08-21T15:23:48;4.10;;;2.87;;
15889;SDS011;8043;49.388;12.128;2022-08-21T15:28:51;3.10;;;2.45;;
15889;SDS011;8043;49.388;12.128;2022-08-21T15:33:53;3.00;;;2.30;;
15889;SDS011;8043;49.388;12.128;2022-08-21T15:38:56;6.53;;;3.00;;
15889;SDS011;8043;49.388;12.128;2022-08-21T15:43:58;3.40;;;2.62;;
15889;SDS011;8043;49.388;12.128;2022-08-21T15:49:00;3.92;;;2.58;;
15889;SDS011;8043;49.388;12.128;2022-08-21T15:54:02;3.17;;;2.47;;
15889;SDS011;8043;49.388;12.128;2022-08-21T15:59:09;2.85;;;2.42;;
15889;SDS011;8043;49.388;12.128;2022-08-21T16:04:18;3.10;;;2.47;;
15889;SDS011;8043;49.388;12.128;2022-08-21T16:09:20;4.65;;;2.50;;
15889;SDS011;8043;49.388;12.128;2022-08-21T16:14:23;2.58;;;2.17;;
15889;SDS011;8043;49.388;12.128;2022-08-21T16:19:26;2.80;;;2.35;;
15889;SDS011;8043;49.388;12.128;2022-08-21T16:24:30;3.47;;;2.52;;
15889;SDS011;8043;49.388;12.128;2022-08-21T16:29:32;3.42;;;2.42;;
15889;SDS011;8043;49.388;12.128;2022-08-21T16:34:36;4.47;;;2.60;;
15889;SDS011;8043;49.388;12.128;2022-08-21T16:39:41;3.08;;;2.30;;
15889;SDS011;8043;49.388;12.128;2022-08-21T16:44:43;2.30;;;1.90;;
15889;SDS011;8043;49.388;12.128;2022-08-21T16:49:46;3.20;;;2.40;;
15889;SDS011;8043;49.388;12.128;2022-08-21T16:54:50;4.67;;;2.60;;
15889;SDS011;8043;49.388;12.128;2022-08-21T16:59:52;2.83;;;2.15;;
15889;SDS011;8043;49.388;12.128;2022-08-21T17:04:54;2.67;;;2.27;;
15889;SDS011;8043;49.388;12.128;2022-08-21T17:09:57;4.60;;;2.52;;
15889;SDS011;8043;49.388;12.128;2022-08-21T17:15:05;3.00;;;1.92;;
15889;SDS011;8043;49.388;12.128;2022-08-21T17:20:05;3.33;;;2.25;;
15889;SDS011;8043;49.388;12.128;2022-08-21T17:25:08;2.95;;;2.10;;
15889;SDS011;8043;49.388;12.128;2022-08-21T17:30:11;3.20;;;2.05;;
15889;SDS011;8043;49.388;12.128;2022-08-21T17:35:14;3.12;;;2.17;;
15889;SDS011;8043;49.388;12.128;2022-08-21T17:40:16;3.05;;;2.40;;
15889;SDS011;8043;49.388;12.128;2022-08-21T17:45:19;2.87;;;2.15;;
15889;SDS011;8043;49.388;12.128;2022-08-21T17:50:22;4.78;;;2.37;;
15889;SDS011;8043;49.388;12.128;2022-08-21T17:55:24;5.28;;;2.60;;
15889;SDS011;8043;49.388;12.128;2022-08-21T18:00:28;3.45;;;2.58;;
15889;SDS011;8043;49.388;12.128;2022-08-21T18:05:32;3.77;;;2.47;;
15889;SDS011;8043;49.388;12.128;2022-08-21T18:10:34;4.97;;;2.55;;
15889;SDS011;8043;49.388;12.128;2022-08-21T18:15:37;11.73;;;6.70;;
15889;SDS011;8043;49.388;12.128;2022-08-21T18:20:39;10.17;;;5.07;;
15889;SDS011;8043;49.388;12.128;2022-08-21T18:25:43;7.10;;;3.83;;
15889;SDS011;8043;49.388;12.128;2022-08-21T18:30:47;3.62;;;2.52;;
15889;SDS011;8043;49.388;12.128;2022-08-21T18:35:50;3.83;;;2.50;;
15889;SDS011;8043;49.388;12.128;2022-08-21T18:40:52;7.20;;;2.87;;
15889;SDS011;8043;49.388;12.128;2022-08-21T18:45:56;6.20;;;2.90;;
15889;SDS011;8043;49.388;12.128;2022-08-21T18:50:59;4.33;;;2.60;;
15889;SDS011;8043;49.388;12.128;2022-08-21T18:56:01;3.53;;;2.60;;
15889;SDS011;8043;49.388;12.128;2022-08-21T19:01:04;3.60;;;2.60;;
15889;SDS011;8043;49.388;12.128;2022-08-21T19:06:07;4.37;;;3.10;;
15889;SDS011;8043;49.388;12.128;2022-08-21T19:11:09;4.77;;;2.70;;
15889;SDS011;8043;49.388;12.128;2022-08-21T19:16:14;4.50;;;2.73;;
15889;SDS011;8043;49.388;12.128;2022-08-21T19:21:17;4.80;;;3.20;;
15889;SDS011;8043;49.388;12.128;2022-08-21T19:26:20;4.43;;;3.17;;
15889;SDS011;8043;49.388;12.128;2022-08-21T19:31:25;4.87;;;3.03;;
15889;SDS011;8043;49.388;12.128;2022-08-21T19:36:30;5.03;;;3.17;;
15889;SDS011;8043;49.388;12.128;2022-08-21T19:41:38;4.63;;;3.03;;
15889;SDS011;8043;49.388;12.128;2022-08-21T19:46:44;5.03;;;3.40;;
15889;SDS011;8043;49.388;12.128;2022-08-21T19:51:47;5.07;;;3.17;;
15889;SDS011;8043;49.388;12.128;2022-08-21T19:56:49;7.03;;;3.30;;
15889;SDS011;8043;49.388;12.128;2022-08-21T20:01:53;5.33;;;3.33;;
15889;SDS011;8043;49.388;12.128;2022-08-21T20:06:55;5.77;;;3.77;;
15889;SDS011;8043;49.388;12.128;2022-08-21T20:12:00;4.80;;;3.27;;
15889;SDS011;8043;49.388;12.128;2022-08-21T20:17:04;4.93;;;3.73;;
15889;SDS011;8043;49.388;12.128;2022-08-21T20:22:07;4.60;;;3.43;;
15889;SDS011;8043;49.388;12.128;2022-08-21T20:27:19;8.13;;;3.80;;
15889;SDS011;8043;49.388;12.128;2022-08-21T20:32:16;5.53;;;3.57;;
15889;SDS011;8043;49.388;12.128;2022-08-21T20:37:19;4.40;;;3.10;;
15889;SDS011;8043;49.388;12.128;2022-08-21T20:42:21;5.87;;;3.53;;
15889;SDS011;8043;49.388;12.128;2022-08-21T20:47:24;5.57;;;3.50;;
15889;SDS011;8043;49.388;12.128;2022-08-21T20:52:26;7.67;;;3.50;;
15889;SDS011;8043;49.388;12.128;2022-08-21T20:57:45;5.20;;;3.27;;
15889;SDS011;8043;49.388;12.128;2022-08-21T21:08:24;3.93;;;3.10;;
15889;SDS011;8043;49.388;12.128;2022-08-21T21:18:50;5.13;;;3.53;;
15889;SDS011;8043;49.388;12.128;2022-08-21T21:24:01;5.23;;;3.03;;
15889;SDS011;8043;49.388;12.128;2022-08-21T21:29:10;5.63;;;3.83;;
15889;SDS011;8043;49.388;12.128;2022-08-21T21:34:18;5.40;;;3.60;;
15889;SDS011;8043;49.388;12.128;2022-08-21T21:39:28;5.20;;;3.20;;
15889;SDS011;8043;49.388;12.128;2022-08-21T22:00:49;3.50;;;2.50;;
15889;SDS011;8043;49.388;12.128;2022-08-21T22:06:05;4.87;;;2.53;;
15889;SDS011;8043;49.388;12.128;2022-08-21T22:11:21;4.37;;;2.67;;
15889;SDS011;8043;49.388;12.128;2022-08-21T22:16:33;4.10;;;2.50;;
15889;SDS011;8043;49.388;12.128;2022-08-21T22:21:36;3.67;;;2.67;;
15889;SDS011;8043;49.388;12.128;2022-08-21T22:26:41;10.50;;;3.33;;
15889;SDS011;8043;49.388;12.128;2022-08-21T22:32:08;4.23;;;2.90;;
15889;SDS011;8043;49.388;12.128;2022-08-21T22:37:03;4.53;;;3.40;;
15889;SDS011;8043;49.388;12.128;2022-08-21T22:42:09;5.53;;;3.07;;
15889;SDS011;8043;49.388;12.128;2022-08-21T22:47:36;4.67;;;3.47;;
15889;SDS011;8043;49.388;12.128;2022-08-21T22:52:36;4.73;;;3.47;;
15889;SDS011;8043;49.388;12.128;2022-08-21T22:57:39;10.17;;;3.80;;
15889;SDS011;8043;49.388;12.128;2022-08-21T23:02:44;6.03;;;3.80;;
15889;SDS011;8043;49.388;12.128;2022-08-21T23:07:52;6.53;;;3.50;;
15889;SDS011;8043;49.388;12.128;2022-08-21T23:12:59;5.90;;;3.70;;
15889;SDS011;8043;49.388;12.128;2022-08-21T23:23:25;6.73;;;3.80;;
15889;SDS011;8043;49.388;12.128;2022-08-21T23:45:02;5.53;;;3.77;;
15889;SDS011;8043;49.388;12.128;2022-08-21T23:50:09;8.43;;;4.00;;
15889;SDS011;8043;49.388;12.128;2022-08-21T23:55:26;9.07;;;4.00;;
